sensor_id;sensor_type;location;lat;lon;timestamp;temperature;humidity
47546;DHT22;50104;52.002;4.688;2022-11-20T00:00:11;0.00;81.50
47546;DHT22;50104;52.002;4.688;2022-11-20T00:05:14;0.00;81.60
47546;DHT22;50104;52.002;4.688;2022-11-20T00:10:14;-0.10;81.60
47546;DHT22;50104;52.002;4.688;2022-11-20T00:15:15;-0.10;81.60
47546;DHT22;50104;52.002;4.688;2022-11-20T00:20:16;-0.10;81.60
47546;DHT22;50104;52.002;4.688;2022-11-20T00:25:17;-0.10;81.60
47546;DHT22;50104;52.002;4.688;2022-11-20T00:30:18;-0.20;81.60
47546;DHT22;50104;52.002;4.688;2022-11-20T00:35:19;-0.20;81.50
47546;DHT22;50104;52.002;4.688;2022-11-20T00:40:19;-0.20;81.50
47546;DHT22;50104;52.002;4.688;2022-11-20T00:45:20;-0.30;81.50
47546;DHT22;50104;52.002;4.688;2022-11-20T00:50:21;-0.30;81.50
47546;DHT22;50104;52.002;4.688;2022-11-20T00:55:22;-0.30;81.40
47546;DHT22;50104;52.002;4.688;2022-11-20T01:00:23;-0.40;81.40
47546;DHT22;50104;52.002;4.688;2022-11-20T01:05:24;-0.40;81.40
47546;DHT22;50104;52.002;4.688;2022-11-20T01:10:24;-0.50;81.50
47546;DHT22;50104;52.002;4.688;2022-11-20T01:15:25;-0.50;81.50
47546;DHT22;50104;52.002;4.688;2022-11-20T01:20:26;-0.50;81.40
47546;DHT22;50104;52.002;4.688;2022-11-20T01:25:27;-0.60;81.40
47546;DHT22;50104;52.002;4.688;2022-11-20T01:30:28;-0.60;81.50
47546;DHT22;50104;52.002;4.688;2022-11-20T01:35:29;-0.60;81.40
47546;DHT22;50104;52.002;4.688;2022-11-20T01:40:30;-0.70;81.40
47546;DHT22;50104;52.002;4.688;2022-11-20T01:56:31;-0.80;81.30
47546;DHT22;50104;52.002;4.688;2022-11-20T02:01:35;-0.80;81.20
47546;DHT22;50104;52.002;4.688;2022-11-20T02:06:48;-0.80;81.20
47546;DHT22;50104;52.002;4.688;2022-11-20T02:11:51;-0.90;81.30
47546;DHT22;50104;52.002;4.688;2022-11-20T02:16:54;-1.00;81.20
47546;DHT22;50104;52.002;4.688;2022-11-20T02:27:14;-1.00;81.20
47546;DHT22;50104;52.002;4.688;2022-11-20T02:32:19;-1.10;81.20
47546;DHT22;50104;52.002;4.688;2022-11-20T02:37:32;-1.10;81.10
47546;DHT22;50104;52.002;4.688;2022-11-20T02:42:33;-1.20;81.10
47546;DHT22;50104;52.002;4.688;2022-11-20T02:47:34;-1.20;81.00
47546;DHT22;50104;52.002;4.688;2022-11-20T02:52:35;-1.30;81.00
47546;DHT22;50104;52.002;4.688;2022-11-20T02:57:35;-1.30;81.00
47546;DHT22;50104;52.002;4.688;2022-11-20T03:02:36;-1.40;81.00
47546;DHT22;50104;52.002;4.688;2022-11-20T03:07:37;-1.40;81.10
47546;DHT22;50104;52.002;4.688;2022-11-20T03:12:39;-1.40;81.10
47546;DHT22;50104;52.002;4.688;2022-11-20T03:17:40;-1.50;81.20
47546;DHT22;50104;52.002;4.688;2022-11-20T03:22:41;-1.50;81.20
47546;DHT22;50104;52.002;4.688;2022-11-20T03:27:41;-1.50;81.20
47546;DHT22;50104;52.002;4.688;2022-11-20T03:32:43;-1.50;81.30
47546;DHT22;50104;52.002;4.688;2022-11-20T03:37:43;-1.60;81.40
47546;DHT22;50104;52.002;4.688;2022-11-20T03:42:47;-1.60;81.30
47546;DHT22;50104;52.002;4.688;2022-11-20T03:47:48;-1.60;81.30
47546;DHT22;50104;52.002;4.688;2022-11-20T03:52:48;-1.60;81.30
47546;DHT22;50104;52.002;4.688;2022-11-20T03:57:49;-1.70;81.30
47546;DHT22;50104;52.002;4.688;2022-11-20T04:02:50;-1.70;81.20
47546;DHT22;50104;52.002;4.688;2022-11-20T04:07:51;-1.70;81.30
47546;DHT22;50104;52.002;4.688;2022-11-20T04:12:52;-1.70;81.30
47546;DHT22;50104;52.002;4.688;2022-11-20T04:17:54;-1.80;81.20
47546;DHT22;50104;52.002;4.688;2022-11-20T04:22:55;-1.80;81.30
47546;DHT22;50104;52.002;4.688;2022-11-20T04:27:56;-1.80;81.30
47546;DHT22;50104;52.002;4.688;2022-11-20T04:32:56;-1.80;81.50
47546;DHT22;50104;52.002;4.688;2022-11-20T04:37:57;-1.80;81.60
47546;DHT22;50104;52.002;4.688;2022-11-20T04:42:58;-1.80;81.60
47546;DHT22;50104;52.002;4.688;2022-11-20T04:47:59;-1.80;81.60
47546;DHT22;50104;52.002;4.688;2022-11-20T04:53:00;-1.80;81.70
47546;DHT22;50104;52.002;4.688;2022-11-20T04:58:00;-1.80;81.80
47546;DHT22;50104;52.002;4.688;2022-11-20T05:03:01;-1.80;81.80
47546;DHT22;50104;52.002;4.688;2022-11-20T05:08:02;-1.80;81.80
47546;DHT22;50104;52.002;4.688;2022-11-20T05:13:04;-1.80;81.80
47546;DHT22;50104;52.002;4.688;2022-11-20T05:18:05;-1.80;81.90
47546;DHT22;50104;52.002;4.688;2022-11-20T05:23:06;-1.80;81.90
47546;DHT22;50104;52.002;4.688;2022-11-20T05:28:07;-1.80;81.90
47546;DHT22;50104;52.002;4.688;2022-11-20T05:33:08;-1.80;81.90
47546;DHT22;50104;52.002;4.688;2022-11-20T05:38:08;-1.80;81.80
47546;DHT22;50104;52.002;4.688;2022-11-20T05:43:09;-1.90;81.80
47546;DHT22;50104;52.002;4.688;2022-11-20T05:48:10;-1.90;81.70
47546;DHT22;50104;52.002;4.688;2022-11-20T05:53:11;-1.90;81.70
47546;DHT22;50104;52.002;4.688;2022-11-20T05:58:12;-1.90;81.80
47546;DHT22;50104;52.002;4.688;2022-11-20T06:03:12;-1.90;81.80
47546;DHT22;50104;52.002;4.688;2022-11-20T06:08:13;-1.90;81.90
47546;DHT22;50104;52.002;4.688;2022-11-20T06:13:14;-1.90;82.00
47546;DHT22;50104;52.002;4.688;2022-11-20T06:18:15;-1.90;82.10
47546;DHT22;50104;52.002;4.688;2022-11-20T06:23:15;-1.90;82.20
47546;DHT22;50104;52.002;4.688;2022-11-20T06:28:16;-1.90;82.30
47546;DHT22;50104;52.002;4.688;2022-11-20T06:33:17;-1.90;82.50
47546;DHT22;50104;52.002;4.688;2022-11-20T06:38:18;-1.80;82.60
47546;DHT22;50104;52.002;4.688;2022-11-20T06:43:19;-1.80;82.60
47546;DHT22;50104;52.002;4.688;2022-11-20T06:48:21;-1.80;82.70
47546;DHT22;50104;52.002;4.688;2022-11-20T06:53:23;-1.80;82.70
47546;DHT22;50104;52.002;4.688;2022-11-20T06:58:26;-1.80;82.80
47546;DHT22;50104;52.002;4.688;2022-11-20T07:03:28;-1.70;83.00
47546;DHT22;50104;52.002;4.688;2022-11-20T07:08:29;-1.70;82.90
47546;DHT22;50104;52.002;4.688;2022-11-20T07:13:31;-1.70;82.90
47546;DHT22;50104;52.002;4.688;2022-11-20T07:18:32;-1.60;83.10
47546;DHT22;50104;52.002;4.688;2022-11-20T07:23:34;-1.60;83.30
47546;DHT22;50104;52.002;4.688;2022-11-20T07:28:35;-1.50;83.40
47546;DHT22;50104;52.002;4.688;2022-11-20T07:33:37;-1.50;83.40
47546;DHT22;50104;52.002;4.688;2022-11-20T07:38:38;-1.40;83.50
47546;DHT22;50104;52.002;4.688;2022-11-20T07:43:39;-1.40;83.70
47546;DHT22;50104;52.002;4.688;2022-11-20T07:48:39;-1.20;83.90
47546;DHT22;50104;52.002;4.688;2022-11-20T07:53:40;-1.20;84.10
47546;DHT22;50104;52.002;4.688;2022-11-20T07:58:41;-1.10;84.30
47546;DHT22;50104;52.002;4.688;2022-11-20T08:03:42;-1.00;84.20
47546;DHT22;50104;52.002;4.688;2022-11-20T08:08:43;-0.90;84.40
47546;DHT22;50104;52.002;4.688;2022-11-20T08:13:44;-0.80;84.60
47546;DHT22;50104;52.002;4.688;2022-11-20T08:19:04;-0.80;84.70
47546;DHT22;50104;52.002;4.688;2022-11-20T08:24:06;-0.70;84.60
47546;DHT22;50104;52.002;4.688;2022-11-20T08:29:07;-0.60;84.80
47546;DHT22;50104;52.002;4.688;2022-11-20T08:34:10;-0.50;84.80
47546;DHT22;50104;52.002;4.688;2022-11-20T08:39:11;-0.40;84.90
47546;DHT22;50104;52.002;4.688;2022-11-20T08:44:12;-0.30;85.00
47546;DHT22;50104;52.002;4.688;2022-11-20T08:49:14;-0.20;85.20
47546;DHT22;50104;52.002;4.688;2022-11-20T08:54:15;-0.10;85.20
47546;DHT22;50104;52.002;4.688;2022-11-20T08:59:17;-0.10;85.40
47546;DHT22;50104;52.002;4.688;2022-11-20T09:04:18;0.00;85.50
47546;DHT22;50104;52.002;4.688;2022-11-20T09:09:19;0.10;85.60
47546;DHT22;50104;52.002;4.688;2022-11-20T09:14:20;0.20;85.50
47546;DHT22;50104;52.002;4.688;2022-11-20T09:19:21;0.30;85.60
47546;DHT22;50104;52.002;4.688;2022-11-20T09:24:24;0.40;85.70
47546;DHT22;50104;52.002;4.688;2022-11-20T09:29:25;0.50;85.80
47546;DHT22;50104;52.002;4.688;2022-11-20T09:34:26;0.60;85.90
47546;DHT22;50104;52.002;4.688;2022-11-20T09:39:26;0.70;86.00
47546;DHT22;50104;52.002;4.688;2022-11-20T09:55:28;1.00;86.20
47546;DHT22;50104;52.002;4.688;2022-11-20T10:00:30;1.10;86.30
47546;DHT22;50104;52.002;4.688;2022-11-20T10:05:35;1.20;86.40
47546;DHT22;50104;52.002;4.688;2022-11-20T10:11:18;1.30;86.50
47546;DHT22;50104;52.002;4.688;2022-11-20T10:27:30;1.70;86.50
47546;DHT22;50104;52.002;4.688;2022-11-20T10:32:59;1.80;86.40
47546;DHT22;50104;52.002;4.688;2022-11-20T10:38:12;1.90;86.40
47546;DHT22;50104;52.002;4.688;2022-11-20T10:43:32;2.00;86.20
47546;DHT22;50104;52.002;4.688;2022-11-20T10:48:34;2.00;86.20
47546;DHT22;50104;52.002;4.688;2022-11-20T10:53:56;2.10;86.20
47546;DHT22;50104;52.002;4.688;2022-11-20T11:04:42;2.30;86.10
47546;DHT22;50104;52.002;4.688;2022-11-20T11:09:50;2.40;86.10
47546;DHT22;50104;52.002;4.688;2022-11-20T11:14:55;2.40;86.10
47546;DHT22;50104;52.002;4.688;2022-11-20T11:20:16;2.50;86.10
47546;DHT22;50104;52.002;4.688;2022-11-20T11:25:37;2.60;86.00
47546;DHT22;50104;52.002;4.688;2022-11-20T11:30:43;2.70;85.80
47546;DHT22;50104;52.002;4.688;2022-11-20T11:35:51;2.70;85.70
47546;DHT22;50104;52.002;4.688;2022-11-20T11:40:56;2.80;85.60
47546;DHT22;50104;52.002;4.688;2022-11-20T11:45:57;2.90;85.50
47546;DHT22;50104;52.002;4.688;2022-11-20T11:50:58;3.00;85.40
47546;DHT22;50104;52.002;4.688;2022-11-20T11:56:09;3.10;85.10
47546;DHT22;50104;52.002;4.688;2022-11-20T12:01:43;3.10;85.00
47546;DHT22;50104;52.002;4.688;2022-11-20T12:06:53;3.20;85.00
47546;DHT22;50104;52.002;4.688;2022-11-20T12:12:11;3.20;85.00
47546;DHT22;50104;52.002;4.688;2022-11-20T12:17:16;3.30;85.30
47546;DHT22;50104;52.002;4.688;2022-11-20T12:22:43;3.30;85.40
47546;DHT22;50104;52.002;4.688;2022-11-20T13:01:45;3.70;85.00
47546;DHT22;50104;52.002;4.688;2022-11-20T13:06:51;3.70;84.90
47546;DHT22;50104;52.002;4.688;2022-11-20T13:22:42;3.80;84.80
47546;DHT22;50104;52.002;4.688;2022-11-20T13:27:48;3.90;84.90
47546;DHT22;50104;52.002;4.688;2022-11-20T13:38:00;3.90;84.80
47546;DHT22;50104;52.002;4.688;2022-11-20T13:43:57;4.00;84.80
47546;DHT22;50104;52.002;4.688;2022-11-20T13:48:44;4.00;84.80
47546;DHT22;50104;52.002;4.688;2022-11-20T14:04:47;4.10;84.90
47546;DHT22;50104;52.002;4.688;2022-11-20T14:09:52;4.20;84.90
47546;DHT22;50104;52.002;4.688;2022-11-20T14:14:55;4.20;84.90
47546;DHT22;50104;52.002;4.688;2022-11-20T14:20:06;4.20;84.90
47546;DHT22;50104;52.002;4.688;2022-11-20T14:30:14;4.20;85.20
47546;DHT22;50104;52.002;4.688;2022-11-20T14:35:31;4.20;85.20
47546;DHT22;50104;52.002;4.688;2022-11-20T14:40:36;4.20;85.60
47546;DHT22;50104;52.002;4.688;2022-11-20T14:45:37;4.20;85.60
47546;DHT22;50104;52.002;4.688;2022-11-20T14:50:39;4.30;85.70
47546;DHT22;50104;52.002;4.688;2022-11-20T14:55:40;4.30;85.80
47546;DHT22;50104;52.002;4.688;2022-11-20T15:00:42;4.30;85.80
47546;DHT22;50104;52.002;4.688;2022-11-20T15:05:54;4.30;85.90
47546;DHT22;50104;52.002;4.688;2022-11-20T15:10:55;4.30;86.00
47546;DHT22;50104;52.002;4.688;2022-11-20T15:15:58;4.30;86.10
47546;DHT22;50104;52.002;4.688;2022-11-20T15:21:03;4.30;86.20
47546;DHT22;50104;52.002;4.688;2022-11-20T15:26:09;4.30;86.30
47546;DHT22;50104;52.002;4.688;2022-11-20T15:31:16;4.30;86.40
47546;DHT22;50104;52.002;4.688;2022-11-20T15:36:22;4.30;86.40
47546;DHT22;50104;52.002;4.688;2022-11-20T15:41:23;4.40;86.70
47546;DHT22;50104;52.002;4.688;2022-11-20T15:46:27;4.40;86.60
47546;DHT22;50104;52.002;4.688;2022-11-20T15:56:33;4.40;86.90
47546;DHT22;50104;52.002;4.688;2022-11-20T16:01:34;4.40;86.90
47546;DHT22;50104;52.002;4.688;2022-11-20T16:06:35;4.40;87.10
47546;DHT22;50104;52.002;4.688;2022-11-20T16:11:36;4.50;87.10
47546;DHT22;50104;52.002;4.688;2022-11-20T16:16:38;4.50;87.20
47546;DHT22;50104;52.002;4.688;2022-11-20T16:21:41;4.50;87.20
47546;DHT22;50104;52.002;4.688;2022-11-20T16:26:42;4.50;87.00
47546;DHT22;50104;52.002;4.688;2022-11-20T16:31:43;4.60;87.00
47546;DHT22;50104;52.002;4.688;2022-11-20T16:36:44;4.60;87.00
47546;DHT22;50104;52.002;4.688;2022-11-20T16:41:45;4.60;86.90
47546;DHT22;50104;52.002;4.688;2022-11-20T16:46:46;4.60;87.00
47546;DHT22;50104;52.002;4.688;2022-11-20T16:51:47;4.70;87.00
47546;DHT22;50104;52.002;4.688;2022-11-20T16:56:48;4.70;86.90
47546;DHT22;50104;52.002;4.688;2022-11-20T17:01:50;4.70;86.90
47546;DHT22;50104;52.002;4.688;2022-11-20T17:06:51;4.70;86.90
47546;DHT22;50104;52.002;4.688;2022-11-20T17:11:52;4.70;86.90
47546;DHT22;50104;52.002;4.688;2022-11-20T17:16:53;4.80;87.00
47546;DHT22;50104;52.002;4.688;2022-11-20T17:21:53;4.80;87.00
47546;DHT22;50104;52.002;4.688;2022-11-20T17:26:54;4.80;86.90
47546;DHT22;50104;52.002;4.688;2022-11-20T17:31:55;4.80;86.90
47546;DHT22;50104;52.002;4.688;2022-11-20T17:36:57;4.90;86.90
47546;DHT22;50104;52.002;4.688;2022-11-20T17:41:58;4.90;86.80
47546;DHT22;50104;52.002;4.688;2022-11-20T17:47:22;4.90;86.90
47546;DHT22;50104;52.002;4.688;2022-11-20T17:52:22;4.90;86.90
47546;DHT22;50104;52.002;4.688;2022-11-20T17:57:25;4.90;86.90
47546;DHT22;50104;52.002;4.688;2022-11-20T18:02:45;4.90;87.00
47546;DHT22;50104;52.002;4.688;2022-11-20T18:07:45;4.90;87.00
47546;DHT22;50104;52.002;4.688;2022-11-20T18:12:46;4.90;86.90
47546;DHT22;50104;52.002;4.688;2022-11-20T18:17:47;5.00;86.90
47546;DHT22;50104;52.002;4.688;2022-11-20T18:22:48;5.00;86.90
47546;DHT22;50104;52.002;4.688;2022-11-20T18:27:49;5.00;87.10
47546;DHT22;50104;52.002;4.688;2022-11-20T18:32:50;5.00;87.10
47546;DHT22;50104;52.002;4.688;2022-11-20T18:37:51;5.00;87.10
47546;DHT22;50104;52.002;4.688;2022-11-20T18:42:51;5.00;86.80
47546;DHT22;50104;52.002;4.688;2022-11-20T18:48:11;4.90;86.80
47546;DHT22;50104;52.002;4.688;2022-11-20T18:53:12;4.90;86.80
47546;DHT22;50104;52.002;4.688;2022-11-20T18:58:13;4.90;86.70
47546;DHT22;50104;52.002;4.688;2022-11-20T19:03:14;4.90;86.60
47546;DHT22;50104;52.002;4.688;2022-11-20T19:08:15;4.80;86.70
47546;DHT22;50104;52.002;4.688;2022-11-20T19:13:16;4.80;86.50
47546;DHT22;50104;52.002;4.688;2022-11-20T19:18:16;4.80;86.40
47546;DHT22;50104;52.002;4.688;2022-11-20T19:23:17;4.70;86.40
47546;DHT22;50104;52.002;4.688;2022-11-20T19:28:21;4.70;86.60
47546;DHT22;50104;52.002;4.688;2022-11-20T19:33:22;4.70;86.60
47546;DHT22;50104;52.002;4.688;2022-11-20T19:38:23;4.70;86.60
47546;DHT22;50104;52.002;4.688;2022-11-20T19:43:24;4.60;86.50
47546;DHT22;50104;52.002;4.688;2022-11-20T19:48:25;4.60;86.50
47546;DHT22;50104;52.002;4.688;2022-11-20T19:53:28;4.50;86.30
47546;DHT22;50104;52.002;4.688;2022-11-20T19:58:29;4.50;86.10
47546;DHT22;50104;52.002;4.688;2022-11-20T20:03:31;4.40;86.40
47546;DHT22;50104;52.002;4.688;2022-11-20T20:08:32;4.40;86.70
47546;DHT22;50104;52.002;4.688;2022-11-20T20:13:33;4.40;86.80
47546;DHT22;50104;52.002;4.688;2022-11-20T20:18:34;4.40;86.80
47546;DHT22;50104;52.002;4.688;2022-11-20T20:23:35;4.40;86.90
47546;DHT22;50104;52.002;4.688;2022-11-20T20:28:36;4.40;87.10
47546;DHT22;50104;52.002;4.688;2022-11-20T20:33:38;4.40;87.20
47546;DHT22;50104;52.002;4.688;2022-11-20T20:38:40;4.40;87.40
47546;DHT22;50104;52.002;4.688;2022-11-20T20:43:41;4.40;87.50
47546;DHT22;50104;52.002;4.688;2022-11-20T20:49:01;4.50;87.50
47546;DHT22;50104;52.002;4.688;2022-11-20T20:54:02;4.50;87.50
47546;DHT22;50104;52.002;4.688;2022-11-20T20:59:03;4.50;87.40
47546;DHT22;50104;52.002;4.688;2022-11-20T21:04:04;4.50;87.30
47546;DHT22;50104;52.002;4.688;2022-11-20T21:09:05;4.50;87.00
47546;DHT22;50104;52.002;4.688;2022-11-20T21:14:06;4.50;87.00
47546;DHT22;50104;52.002;4.688;2022-11-20T21:19:07;4.50;87.10
47546;DHT22;50104;52.002;4.688;2022-11-20T21:24:08;4.50;87.10
47546;DHT22;50104;52.002;4.688;2022-11-20T21:29:08;4.50;87.00
47546;DHT22;50104;52.002;4.688;2022-11-20T21:34:13;4.50;87.10
47546;DHT22;50104;52.002;4.688;2022-11-20T21:39:15;4.40;87.30
47546;DHT22;50104;52.002;4.688;2022-11-20T21:44:16;4.40;87.40
47546;DHT22;50104;52.002;4.688;2022-11-20T21:49:17;4.40;87.30
47546;DHT22;50104;52.002;4.688;2022-11-20T21:54:18;4.40;87.10
47546;DHT22;50104;52.002;4.688;2022-11-20T21:59:20;4.40;87.10
47546;DHT22;50104;52.002;4.688;2022-11-20T22:04:21;4.40;87.20
47546;DHT22;50104;52.002;4.688;2022-11-20T22:09:22;4.40;87.30
47546;DHT22;50104;52.002;4.688;2022-11-20T22:14:24;4.40;87.40
47546;DHT22;50104;52.002;4.688;2022-11-20T22:19:25;4.40;87.50
47546;DHT22;50104;52.002;4.688;2022-11-20T22:24:25;4.40;87.60
47546;DHT22;50104;52.002;4.688;2022-11-20T22:29:26;4.40;87.60
47546;DHT22;50104;52.002;4.688;2022-11-20T22:34:27;4.40;87.70
47546;DHT22;50104;52.002;4.688;2022-11-20T22:39:28;4.40;87.80
47546;DHT22;50104;52.002;4.688;2022-11-20T22:44:29;4.50;87.70
47546;DHT22;50104;52.002;4.688;2022-11-20T22:49:29;4.50;87.60
47546;DHT22;50104;52.002;4.688;2022-11-20T22:54:30;4.50;87.70
47546;DHT22;50104;52.002;4.688;2022-11-20T22:59:31;4.50;87.70
47546;DHT22;50104;52.002;4.688;2022-11-20T23:04:32;4.50;87.70
47546;DHT22;50104;52.002;4.688;2022-11-20T23:09:32;4.50;87.80
47546;DHT22;50104;52.002;4.688;2022-11-20T23:14:33;4.50;87.70
47546;DHT22;50104;52.002;4.688;2022-11-20T23:19:35;4.50;87.80
47546;DHT22;50104;52.002;4.688;2022-11-20T23:24:36;4.50;87.90
47546;DHT22;50104;52.002;4.688;2022-11-20T23:29:37;4.60;87.90
47546;DHT22;50104;52.002;4.688;2022-11-20T23:34:37;4.60;87.90
47546;DHT22;50104;52.002;4.688;2022-11-20T23:39:38;4.60;87.90
47546;DHT22;50104;52.002;4.688;2022-11-20T23:44:39;4.60;87.90
47546;DHT22;50104;52.002;4.688;2022-11-20T23:49:40;4.60;87.90
47546;DHT22;50104;52.002;4.688;2022-11-20T23:54:41;4.60;87.90
47546;DHT22;50104;52.002;4.688;2022-11-20T23:59:43;4.70;87.90
